sensor_id;sensor_type;location;lat;lon;timestamp;temperature;humidity
66184;DHT22;52989;48.796;9.806;2022-08-25T00:00:16;18.00;99.90
66184;DHT22;52989;48.796;9.806;2022-08-25T00:02:42;17.90;99.90
66184;DHT22;52989;48.796;9.806;2022-08-25T00:05:07;17.60;99.90
66184;DHT22;52989;48.796;9.806;2022-08-25T00:07:34;17.50;99.90
66184;DHT22;52989;48.796;9.806;2022-08-25T00:10:00;17.50;99.90
66184;DHT22;52989;48.796;9.806;2022-08-25T00:12:26;17.60;99.90
66184;DHT22;52989;48.796;9.806;2022-08-25T00:14:51;17.90;99.90
66184;DHT22;52989;48.796;9.806;2022-08-25T00:17:17;17.80;99.90
66184;DHT22;52989;48.796;9.806;2022-08-25T00:19:44;17.60;99.90
66184;DHT22;52989;48.796;9.806;2022-08-25T00:22:09;17.60;99.90
66184;DHT22;52989;48.796;9.806;2022-08-25T00:24:35;17.80;99.90
66184;DHT22;52989;48.796;9.806;2022-08-25T00:27:01;17.60;99.90
66184;DHT22;52989;48.796;9.806;2022-08-25T00:29:28;17.60;99.90
66184;DHT22;52989;48.796;9.806;2022-08-25T00:31:54;17.80;99.90
66184;DHT22;52989;48.796;9.806;2022-08-25T00:34:27;17.60;99.90
66184;DHT22;52989;48.796;9.806;2022-08-25T00:36:54;17.70;99.90
66184;DHT22;52989;48.796;9.806;2022-08-25T00:39:21;17.60;99.90
66184;DHT22;52989;48.796;9.806;2022-08-25T00:41:48;17.40;99.90
66184;DHT22;52989;48.796;9.806;2022-08-25T00:44:15;17.50;99.90
66184;DHT22;52989;48.796;9.806;2022-08-25T00:46:52;17.30;99.90
66184;DHT22;52989;48.796;9.806;2022-08-25T00:49:41;17.10;99.90
66184;DHT22;52989;48.796;9.806;2022-08-25T00:54:46;17.00;99.90
66184;DHT22;52989;48.796;9.806;2022-08-25T00:57:17;17.00;99.90
66184;DHT22;52989;48.796;9.806;2022-08-25T00:59:44;17.00;99.90
66184;DHT22;52989;48.796;9.806;2022-08-25T01:02:10;17.00;99.90
66184;DHT22;52989;48.796;9.806;2022-08-25T01:04:36;16.90;99.90
66184;DHT22;52989;48.796;9.806;2022-08-25T01:07:03;17.10;99.90
66184;DHT22;52989;48.796;9.806;2022-08-25T01:09:30;17.10;99.90
66184;DHT22;52989;48.796;9.806;2022-08-25T01:11:57;17.00;99.90
66184;DHT22;52989;48.796;9.806;2022-08-25T01:14:24;16.80;99.90
66184;DHT22;52989;48.796;9.806;2022-08-25T01:16:50;16.60;99.90
66184;DHT22;52989;48.796;9.806;2022-08-25T01:19:17;16.50;99.90
66184;DHT22;52989;48.796;9.806;2022-08-25T01:21:47;16.60;99.90
66184;DHT22;52989;48.796;9.806;2022-08-25T01:24:48;16.80;99.90
66184;DHT22;52989;48.796;9.806;2022-08-25T01:27:17;16.90;99.90
66184;DHT22;52989;48.796;9.806;2022-08-25T01:29:42;16.90;99.90
66184;DHT22;52989;48.796;9.806;2022-08-25T01:32:10;16.80;99.90
66184;DHT22;52989;48.796;9.806;2022-08-25T01:34:40;16.60;99.90
66184;DHT22;52989;48.796;9.806;2022-08-25T01:37:06;16.60;99.90
66184;DHT22;52989;48.796;9.806;2022-08-25T01:39:32;16.50;99.90
66184;DHT22;52989;48.796;9.806;2022-08-25T01:44:24;16.50;99.90
66184;DHT22;52989;48.796;9.806;2022-08-25T01:46:51;16.50;99.90
66184;DHT22;52989;48.796;9.806;2022-08-25T01:49:17;16.50;99.90
66184;DHT22;52989;48.796;9.806;2022-08-25T01:51:56;16.50;99.90
66184;DHT22;52989;48.796;9.806;2022-08-25T01:54:24;16.60;99.90
66184;DHT22;52989;48.796;9.806;2022-08-25T01:56:49;16.50;99.90
66184;DHT22;52989;48.796;9.806;2022-08-25T01:59:19;16.50;99.90
66184;DHT22;52989;48.796;9.806;2022-08-25T02:01:46;16.40;99.90
66184;DHT22;52989;48.796;9.806;2022-08-25T02:04:11;16.40;99.90
66184;DHT22;52989;48.796;9.806;2022-08-25T02:06:37;16.30;99.90
66184;DHT22;52989;48.796;9.806;2022-08-25T02:09:12;16.30;99.90
66184;DHT22;52989;48.796;9.806;2022-08-25T02:11:41;16.10;99.90
66184;DHT22;52989;48.796;9.806;2022-08-25T02:14:08;16.00;99.90
66184;DHT22;52989;48.796;9.806;2022-08-25T02:16:37;15.90;99.90
66184;DHT22;52989;48.796;9.806;2022-08-25T02:19:08;16.10;99.90
66184;DHT22;52989;48.796;9.806;2022-08-25T02:21:34;16.10;99.90
66184;DHT22;52989;48.796;9.806;2022-08-25T02:24:01;16.30;99.90
66184;DHT22;52989;48.796;9.806;2022-08-25T02:26:27;16.70;99.90
66184;DHT22;52989;48.796;9.806;2022-08-25T02:28:53;16.60;99.90
66184;DHT22;52989;48.796;9.806;2022-08-25T02:31:21;16.30;99.90
66184;DHT22;52989;48.796;9.806;2022-08-25T02:33:46;16.50;99.90
66184;DHT22;52989;48.796;9.806;2022-08-25T02:36:12;16.30;99.90
66184;DHT22;52989;48.796;9.806;2022-08-25T02:38:38;16.20;99.90
66184;DHT22;52989;48.796;9.806;2022-08-25T02:41:12;16.10;99.90
66184;DHT22;52989;48.796;9.806;2022-08-25T02:43:40;16.30;99.90
66184;DHT22;52989;48.796;9.806;2022-08-25T02:46:06;16.80;99.90
66184;DHT22;52989;48.796;9.806;2022-08-25T02:48:32;16.60;99.90
66184;DHT22;52989;48.796;9.806;2022-08-25T02:50:59;16.70;99.90
66184;DHT22;52989;48.796;9.806;2022-08-25T02:53:26;16.60;99.90
66184;DHT22;52989;48.796;9.806;2022-08-25T02:55:52;16.90;99.90
66184;DHT22;52989;48.796;9.806;2022-08-25T02:58:18;16.70;99.90
66184;DHT22;52989;48.796;9.806;2022-08-25T03:00:45;16.30;99.90
66184;DHT22;52989;48.796;9.806;2022-08-25T03:03:11;16.00;99.90
66184;DHT22;52989;48.796;9.806;2022-08-25T03:05:37;15.90;99.90
66184;DHT22;52989;48.796;9.806;2022-08-25T03:08:05;15.80;99.90
66184;DHT22;52989;48.796;9.806;2022-08-25T03:10:31;15.80;99.90
66184;DHT22;52989;48.796;9.806;2022-08-25T03:12:56;15.70;99.90
66184;DHT22;52989;48.796;9.806;2022-08-25T03:15:22;15.70;99.90
66184;DHT22;52989;48.796;9.806;2022-08-25T03:17:50;15.70;99.90
66184;DHT22;52989;48.796;9.806;2022-08-25T03:20:16;15.60;99.90
66184;DHT22;52989;48.796;9.806;2022-08-25T03:22:42;15.40;99.90
66184;DHT22;52989;48.796;9.806;2022-08-25T03:25:09;15.60;99.90
66184;DHT22;52989;48.796;9.806;2022-08-25T03:27:53;15.60;99.90
66184;DHT22;52989;48.796;9.806;2022-08-25T03:30:19;15.60;99.90
66184;DHT22;52989;48.796;9.806;2022-08-25T03:32:45;15.60;99.90
66184;DHT22;52989;48.796;9.806;2022-08-25T03:35:11;15.50;99.90
66184;DHT22;52989;48.796;9.806;2022-08-25T03:37:36;15.50;99.90
66184;DHT22;52989;48.796;9.806;2022-08-25T03:40:04;15.50;99.90
66184;DHT22;52989;48.796;9.806;2022-08-25T03:42:30;15.40;99.90
66184;DHT22;52989;48.796;9.806;2022-08-25T03:44:55;15.50;99.90
66184;DHT22;52989;48.796;9.806;2022-08-25T03:47:21;15.60;99.90
66184;DHT22;52989;48.796;9.806;2022-08-25T03:49:50;15.70;99.90
66184;DHT22;52989;48.796;9.806;2022-08-25T03:52:16;15.80;99.90
66184;DHT22;52989;48.796;9.806;2022-08-25T03:54:42;15.70;99.90
66184;DHT22;52989;48.796;9.806;2022-08-25T03:57:09;15.50;99.90
66184;DHT22;52989;48.796;9.806;2022-08-25T03:59:34;15.40;99.90
66184;DHT22;52989;48.796;9.806;2022-08-25T04:02:03;15.40;99.90
66184;DHT22;52989;48.796;9.806;2022-08-25T04:04:29;15.40;99.90
66184;DHT22;52989;48.796;9.806;2022-08-25T04:06:55;15.40;99.90
66184;DHT22;52989;48.796;9.806;2022-08-25T04:09:22;15.40;99.90
66184;DHT22;52989;48.796;9.806;2022-08-25T04:11:47;15.60;99.90
66184;DHT22;52989;48.796;9.806;2022-08-25T04:14:13;15.80;99.90
66184;DHT22;52989;48.796;9.806;2022-08-25T04:16:39;15.70;99.90
66184;DHT22;52989;48.796;9.806;2022-08-25T04:19:06;15.60;99.90
66184;DHT22;52989;48.796;9.806;2022-08-25T04:21:34;15.40;99.90
66184;DHT22;52989;48.796;9.806;2022-08-25T04:24:00;15.30;99.90
66184;DHT22;52989;48.796;9.806;2022-08-25T04:26:41;15.30;99.90
66184;DHT22;52989;48.796;9.806;2022-08-25T04:29:08;15.20;99.90
66184;DHT22;52989;48.796;9.806;2022-08-25T04:31:35;15.30;99.90
66184;DHT22;52989;48.796;9.806;2022-08-25T04:34:03;15.20;99.90
66184;DHT22;52989;48.796;9.806;2022-08-25T04:36:29;15.40;99.90
66184;DHT22;52989;48.796;9.806;2022-08-25T04:38:55;15.40;99.90
66184;DHT22;52989;48.796;9.806;2022-08-25T04:41:22;15.10;99.90
66184;DHT22;52989;48.796;9.806;2022-08-25T04:43:49;15.00;99.90
66184;DHT22;52989;48.796;9.806;2022-08-25T04:46:23;15.00;99.90
66184;DHT22;52989;48.796;9.806;2022-08-25T04:48:50;15.00;99.90
66184;DHT22;52989;48.796;9.806;2022-08-25T04:51:25;15.00;99.90
66184;DHT22;52989;48.796;9.806;2022-08-25T04:53:52;15.10;99.90
66184;DHT22;52989;48.796;9.806;2022-08-25T04:56:21;15.10;99.90
66184;DHT22;52989;48.796;9.806;2022-08-25T04:58:50;15.10;99.90
66184;DHT22;52989;48.796;9.806;2022-08-25T05:01:19;15.40;99.90
66184;DHT22;52989;48.796;9.806;2022-08-25T05:03:46;15.30;99.90
66184;DHT22;52989;48.796;9.806;2022-08-25T05:06:12;15.30;99.90
66184;DHT22;52989;48.796;9.806;2022-08-25T05:08:38;15.30;99.90
66184;DHT22;52989;48.796;9.806;2022-08-25T05:11:08;15.20;99.90
66184;DHT22;52989;48.796;9.806;2022-08-25T05:13:34;15.20;99.90
66184;DHT22;52989;48.796;9.806;2022-08-25T05:16:01;15.10;99.90
66184;DHT22;52989;48.796;9.806;2022-08-25T05:18:28;15.10;99.90
66184;DHT22;52989;48.796;9.806;2022-08-25T05:20:55;15.10;99.90
66184;DHT22;52989;48.796;9.806;2022-08-25T05:23:22;15.30;99.90
66184;DHT22;52989;48.796;9.806;2022-08-25T05:25:50;15.30;99.90
66184;DHT22;52989;48.796;9.806;2022-08-25T05:28:17;15.40;99.90
66184;DHT22;52989;48.796;9.806;2022-08-25T05:30:43;15.50;99.90
66184;DHT22;52989;48.796;9.806;2022-08-25T05:33:10;15.70;99.90
66184;DHT22;52989;48.796;9.806;2022-08-25T05:35:37;15.60;99.90
66184;DHT22;52989;48.796;9.806;2022-08-25T05:38:04;15.80;99.90
66184;DHT22;52989;48.796;9.806;2022-08-25T05:40:30;15.60;99.90
66184;DHT22;52989;48.796;9.806;2022-08-25T05:42:56;16.30;99.90
66184;DHT22;52989;48.796;9.806;2022-08-25T05:45:22;15.90;99.90
66184;DHT22;52989;48.796;9.806;2022-08-25T05:47:48;15.80;99.90
66184;DHT22;52989;48.796;9.806;2022-08-25T05:50:14;15.70;99.90
66184;DHT22;52989;48.796;9.806;2022-08-25T05:52:40;15.70;99.90
66184;DHT22;52989;48.796;9.806;2022-08-25T05:55:06;15.70;99.90
66184;DHT22;52989;48.796;9.806;2022-08-25T05:57:32;15.70;99.90
66184;DHT22;52989;48.796;9.806;2022-08-25T05:59:58;15.70;99.90
66184;DHT22;52989;48.796;9.806;2022-08-25T06:02:24;15.80;99.90
66184;DHT22;52989;48.796;9.806;2022-08-25T06:05:09;15.80;99.90
66184;DHT22;52989;48.796;9.806;2022-08-25T06:07:35;16.00;99.90
66184;DHT22;52989;48.796;9.806;2022-08-25T06:10:05;16.20;99.90
66184;DHT22;52989;48.796;9.806;2022-08-25T06:12:32;16.20;99.90
66184;DHT22;52989;48.796;9.806;2022-08-25T06:14:58;16.40;99.90
66184;DHT22;52989;48.796;9.806;2022-08-25T06:17:24;16.50;99.90
66184;DHT22;52989;48.796;9.806;2022-08-25T06:19:49;16.60;99.90
66184;DHT22;52989;48.796;9.806;2022-08-25T06:22:15;16.40;99.90
66184;DHT22;52989;48.796;9.806;2022-08-25T06:24:41;16.80;99.90
66184;DHT22;52989;48.796;9.806;2022-08-25T06:27:06;16.90;99.90
66184;DHT22;52989;48.796;9.806;2022-08-25T06:29:32;17.30;99.90
66184;DHT22;52989;48.796;9.806;2022-08-25T06:31:57;17.60;99.90
66184;DHT22;52989;48.796;9.806;2022-08-25T06:34:23;17.30;99.90
66184;DHT22;52989;48.796;9.806;2022-08-25T06:36:48;17.30;99.90
66184;DHT22;52989;48.796;9.806;2022-08-25T06:39:15;17.50;99.90
66184;DHT22;52989;48.796;9.806;2022-08-25T06:41:41;17.60;99.90
66184;DHT22;52989;48.796;9.806;2022-08-25T06:44:07;17.80;99.90
66184;DHT22;52989;48.796;9.806;2022-08-25T06:46:33;18.00;99.90
66184;DHT22;52989;48.796;9.806;2022-08-25T06:48:59;18.10;99.90
66184;DHT22;52989;48.796;9.806;2022-08-25T06:51:25;18.20;99.90
66184;DHT22;52989;48.796;9.806;2022-08-25T06:53:52;18.50;99.90
66184;DHT22;52989;48.796;9.806;2022-08-25T06:56:19;18.60;99.90
66184;DHT22;52989;48.796;9.806;2022-08-25T06:58:46;18.50;99.90
66184;DHT22;52989;48.796;9.806;2022-08-25T07:01:18;18.60;99.90
66184;DHT22;52989;48.796;9.806;2022-08-25T07:03:46;18.70;99.90
66184;DHT22;52989;48.796;9.806;2022-08-25T07:06:12;18.70;99.90
66184;DHT22;52989;48.796;9.806;2022-08-25T07:08:38;19.10;99.90
66184;DHT22;52989;48.796;9.806;2022-08-25T07:11:09;19.10;99.90
66184;DHT22;52989;48.796;9.806;2022-08-25T07:13:35;19.40;99.90
66184;DHT22;52989;48.796;9.806;2022-08-25T07:16:02;19.40;99.90
66184;DHT22;52989;48.796;9.806;2022-08-25T07:18:28;19.60;99.90
66184;DHT22;52989;48.796;9.806;2022-08-25T07:20:54;19.60;99.90
66184;DHT22;52989;48.796;9.806;2022-08-25T07:23:21;19.60;99.90
66184;DHT22;52989;48.796;9.806;2022-08-25T07:25:47;19.80;99.90
66184;DHT22;52989;48.796;9.806;2022-08-25T07:28:13;19.80;99.90
66184;DHT22;52989;48.796;9.806;2022-08-25T07:30:40;20.00;99.90
66184;DHT22;52989;48.796;9.806;2022-08-25T07:33:05;20.10;99.90
66184;DHT22;52989;48.796;9.806;2022-08-25T07:35:31;20.30;99.90
66184;DHT22;52989;48.796;9.806;2022-08-25T07:37:57;20.40;99.90
66184;DHT22;52989;48.796;9.806;2022-08-25T07:40:29;20.60;99.90
66184;DHT22;52989;48.796;9.806;2022-08-25T07:42:58;20.60;99.90
66184;DHT22;52989;48.796;9.806;2022-08-25T07:45:27;20.70;99.90
66184;DHT22;52989;48.796;9.806;2022-08-25T07:47:58;20.70;99.90
66184;DHT22;52989;48.796;9.806;2022-08-25T07:50:25;20.80;99.90
66184;DHT22;52989;48.796;9.806;2022-08-25T07:52:51;20.90;99.90
66184;DHT22;52989;48.796;9.806;2022-08-25T07:55:17;20.90;99.90
66184;DHT22;52989;48.796;9.806;2022-08-25T07:57:43;21.00;99.90
66184;DHT22;52989;48.796;9.806;2022-08-25T08:00:12;21.30;99.90
66184;DHT22;52989;48.796;9.806;2022-08-25T08:02:39;21.30;99.90
66184;DHT22;52989;48.796;9.806;2022-08-25T08:05:05;21.40;99.90
66184;DHT22;52989;48.796;9.806;2022-08-25T08:07:31;21.50;99.90
66184;DHT22;52989;48.796;9.806;2022-08-25T08:09:57;21.60;99.90
66184;DHT22;52989;48.796;9.806;2022-08-25T08:12:23;21.80;99.90
66184;DHT22;52989;48.796;9.806;2022-08-25T08:14:50;21.80;99.90
66184;DHT22;52989;48.796;9.806;2022-08-25T08:17:17;21.80;99.90
66184;DHT22;52989;48.796;9.806;2022-08-25T08:19:43;21.90;99.90
66184;DHT22;52989;48.796;9.806;2022-08-25T08:22:08;22.00;99.90
66184;DHT22;52989;48.796;9.806;2022-08-25T08:24:36;22.10;99.90
66184;DHT22;52989;48.796;9.806;2022-08-25T08:27:06;22.30;99.90
66184;DHT22;52989;48.796;9.806;2022-08-25T08:29:33;22.50;99.70
66184;DHT22;52989;48.796;9.806;2022-08-25T08:31:59;22.50;99.60
66184;DHT22;52989;48.796;9.806;2022-08-25T08:34:25;22.70;98.20
66184;DHT22;52989;48.796;9.806;2022-08-25T08:36:51;22.80;98.50
66184;DHT22;52989;48.796;9.806;2022-08-25T08:39:17;22.80;98.20
66184;DHT22;52989;48.796;9.806;2022-08-25T08:41:54;22.80;97.40
66184;DHT22;52989;48.796;9.806;2022-08-25T08:45:01;22.90;96.80
66184;DHT22;52989;48.796;9.806;2022-08-25T08:50:29;23.20;96.10
66184;DHT22;52989;48.796;9.806;2022-08-25T08:53:15;23.20;95.40
66184;DHT22;52989;48.796;9.806;2022-08-25T08:55:44;23.30;95.20
66184;DHT22;52989;48.796;9.806;2022-08-25T08:58:21;23.40;95.00
66184;DHT22;52989;48.796;9.806;2022-08-25T09:00:51;23.40;94.90
66184;DHT22;52989;48.796;9.806;2022-08-25T09:03:43;23.40;94.80
66184;DHT22;52989;48.796;9.806;2022-08-25T09:06:17;23.50;94.50
66184;DHT22;52989;48.796;9.806;2022-08-25T09:08:44;23.70;95.70
66184;DHT22;52989;48.796;9.806;2022-08-25T09:16:52;24.00;93.60
66184;DHT22;52989;48.796;9.806;2022-08-25T09:25:49;24.50;92.30
66184;DHT22;52989;48.796;9.806;2022-08-25T09:28:12;24.50;92.40
66184;DHT22;52989;48.796;9.806;2022-08-25T09:31:03;24.60;91.00
66184;DHT22;52989;48.796;9.806;2022-08-25T09:33:32;24.90;91.20
66184;DHT22;52989;48.796;9.806;2022-08-25T09:35:58;24.90;91.00
66184;DHT22;52989;48.796;9.806;2022-08-25T09:38:26;25.00;90.50
66184;DHT22;52989;48.796;9.806;2022-08-25T09:40:56;25.20;90.20
66184;DHT22;52989;48.796;9.806;2022-08-25T09:48:32;25.20;89.60
66184;DHT22;52989;48.796;9.806;2022-08-25T09:56:20;25.50;89.10
66184;DHT22;52989;48.796;9.806;2022-08-25T09:58:46;25.40;88.50
66184;DHT22;52989;48.796;9.806;2022-08-25T10:01:15;25.50;88.20
66184;DHT22;52989;48.796;9.806;2022-08-25T10:03:56;25.60;88.50
66184;DHT22;52989;48.796;9.806;2022-08-25T10:06:23;25.70;87.20
66184;DHT22;52989;48.796;9.806;2022-08-25T10:16:39;26.00;87.30
66184;DHT22;52989;48.796;9.806;2022-08-25T10:21:41;25.60;87.60
66184;DHT22;52989;48.796;9.806;2022-08-25T10:24:11;26.00;86.00
66184;DHT22;52989;48.796;9.806;2022-08-25T10:35:16;26.40;84.20
66184;DHT22;52989;48.796;9.806;2022-08-25T10:38:00;26.80;83.00
66184;DHT22;52989;48.796;9.806;2022-08-25T10:40:41;26.80;82.10
66184;DHT22;52989;48.796;9.806;2022-08-25T10:43:39;27.00;81.60
66184;DHT22;52989;48.796;9.806;2022-08-25T10:49:29;27.70;78.60
66184;DHT22;52989;48.796;9.806;2022-08-25T10:52:00;27.30;79.90
66184;DHT22;52989;48.796;9.806;2022-08-25T10:54:41;27.30;79.80
66184;DHT22;52989;48.796;9.806;2022-08-25T11:00:10;27.00;80.10
66184;DHT22;52989;48.796;9.806;2022-08-25T11:05:59;27.20;78.80
66184;DHT22;52989;48.796;9.806;2022-08-25T11:11:05;27.90;76.80
66184;DHT22;52989;48.796;9.806;2022-08-25T11:14:08;28.30;75.90
66184;DHT22;52989;48.796;9.806;2022-08-25T11:19:37;28.20;74.10
66184;DHT22;52989;48.796;9.806;2022-08-25T11:22:21;28.00;75.00
66184;DHT22;52989;48.796;9.806;2022-08-25T11:27:18;27.80;72.80
66184;DHT22;52989;48.796;9.806;2022-08-25T11:29:57;27.70;73.60
66184;DHT22;52989;48.796;9.806;2022-08-25T11:32:24;27.70;72.20
66184;DHT22;52989;48.796;9.806;2022-08-25T11:34:51;27.50;73.30
66184;DHT22;52989;48.796;9.806;2022-08-25T11:37:24;27.20;73.80
66184;DHT22;52989;48.796;9.806;2022-08-25T11:45:38;28.00;71.60
66184;DHT22;52989;48.796;9.806;2022-08-25T11:50:58;29.00;70.10
66184;DHT22;52989;48.796;9.806;2022-08-25T11:56:04;29.20;66.90
66184;DHT22;52989;48.796;9.806;2022-08-25T11:58:41;29.10;66.90
66184;DHT22;52989;48.796;9.806;2022-08-25T12:01:10;29.10;67.20
66184;DHT22;52989;48.796;9.806;2022-08-25T12:06:15;29.50;68.10
66184;DHT22;52989;48.796;9.806;2022-08-25T12:17:04;29.50;65.00
66184;DHT22;52989;48.796;9.806;2022-08-25T12:30:26;29.40;64.70
66184;DHT22;52989;48.796;9.806;2022-08-25T12:35:59;30.40;65.20
66184;DHT22;52989;48.796;9.806;2022-08-25T12:38:49;29.90;63.50
66184;DHT22;52989;48.796;9.806;2022-08-25T12:41:20;29.40;65.00
66184;DHT22;52989;48.796;9.806;2022-08-25T12:43:48;28.70;66.20
66184;DHT22;52989;48.796;9.806;2022-08-25T12:49:00;28.70;66.50
66184;DHT22;52989;48.796;9.806;2022-08-25T12:54:10;29.50;63.50
66184;DHT22;52989;48.796;9.806;2022-08-25T12:56:41;30.00;65.80
66184;DHT22;52989;48.796;9.806;2022-08-25T12:59:18;30.00;62.80
66184;DHT22;52989;48.796;9.806;2022-08-25T13:07:46;30.20;62.30
66184;DHT22;52989;48.796;9.806;2022-08-25T13:10:45;29.50;62.70
66184;DHT22;52989;48.796;9.806;2022-08-25T13:16:02;29.90;62.70
66184;DHT22;52989;48.796;9.806;2022-08-25T13:18:31;30.00;63.40
66184;DHT22;52989;48.796;9.806;2022-08-25T13:21:17;30.10;62.00
66184;DHT22;52989;48.796;9.806;2022-08-25T13:23:51;30.10;62.20
66184;DHT22;52989;48.796;9.806;2022-08-25T13:28:58;30.10;60.40
66184;DHT22;52989;48.796;9.806;2022-08-25T13:31:25;30.10;60.80
66184;DHT22;52989;48.796;9.806;2022-08-25T13:34:00;29.40;60.40
66184;DHT22;52989;48.796;9.806;2022-08-25T13:36:31;28.80;62.50
66184;DHT22;52989;48.796;9.806;2022-08-25T13:39:23;28.50;63.90
66184;DHT22;52989;48.796;9.806;2022-08-25T13:41:54;28.50;63.80
66184;DHT22;52989;48.796;9.806;2022-08-25T13:44:22;28.50;65.20
66184;DHT22;52989;48.796;9.806;2022-08-25T13:47:05;28.30;64.00
66184;DHT22;52989;48.796;9.806;2022-08-25T13:49:31;28.90;63.00
66184;DHT22;52989;48.796;9.806;2022-08-25T13:51:57;29.60;62.30
66184;DHT22;52989;48.796;9.806;2022-08-25T13:54:28;30.00;63.40
66184;DHT22;52989;48.796;9.806;2022-08-25T13:57:13;29.60;61.30
66184;DHT22;52989;48.796;9.806;2022-08-25T13:59:42;29.00;63.70
66184;DHT22;52989;48.796;9.806;2022-08-25T14:02:11;28.50;63.50
66184;DHT22;52989;48.796;9.806;2022-08-25T14:12:38;28.70;62.90
66184;DHT22;52989;48.796;9.806;2022-08-25T14:17:44;28.40;63.40
66184;DHT22;52989;48.796;9.806;2022-08-25T14:20:26;28.20;64.00
66184;DHT22;52989;48.796;9.806;2022-08-25T14:23:06;27.90;64.90
66184;DHT22;52989;48.796;9.806;2022-08-25T14:25:32;28.20;63.50
66184;DHT22;52989;48.796;9.806;2022-08-25T14:28:04;28.60;62.90
66184;DHT22;52989;48.796;9.806;2022-08-25T14:30:33;29.20;62.90
66184;DHT22;52989;48.796;9.806;2022-08-25T14:32:59;29.50;62.20
66184;DHT22;52989;48.796;9.806;2022-08-25T14:35:26;29.60;61.40
66184;DHT22;52989;48.796;9.806;2022-08-25T14:37:53;29.50;60.40
66184;DHT22;52989;48.796;9.806;2022-08-25T14:40:19;29.80;61.30
66184;DHT22;52989;48.796;9.806;2022-08-25T14:42:47;29.90;61.50
66184;DHT22;52989;48.796;9.806;2022-08-25T14:45:17;30.10;62.20
66184;DHT22;52989;48.796;9.806;2022-08-25T14:47:43;29.70;60.80
66184;DHT22;52989;48.796;9.806;2022-08-25T14:50:12;29.80;61.50
66184;DHT22;52989;48.796;9.806;2022-08-25T14:52:41;29.70;60.80
66184;DHT22;52989;48.796;9.806;2022-08-25T14:55:08;29.70;61.50
66184;DHT22;52989;48.796;9.806;2022-08-25T14:57:34;29.50;60.00
66184;DHT22;52989;48.796;9.806;2022-08-25T15:00:00;29.80;58.40
66184;DHT22;52989;48.796;9.806;2022-08-25T15:02:27;29.80;58.30
66184;DHT22;52989;48.796;9.806;2022-08-25T15:04:56;29.60;61.00
66184;DHT22;52989;48.796;9.806;2022-08-25T15:07:30;29.00;60.20
66184;DHT22;52989;48.796;9.806;2022-08-25T15:10:15;28.50;61.50
66184;DHT22;52989;48.796;9.806;2022-08-25T15:12:40;28.20;61.80
66184;DHT22;52989;48.796;9.806;2022-08-25T15:15:06;28.10;62.60
66184;DHT22;52989;48.796;9.806;2022-08-25T15:17:32;27.90;63.60
66184;DHT22;52989;48.796;9.806;2022-08-25T15:19:57;27.60;64.80
66184;DHT22;52989;48.796;9.806;2022-08-25T15:22:23;27.60;64.80
66184;DHT22;52989;48.796;9.806;2022-08-25T15:24:49;27.50;64.80
66184;DHT22;52989;48.796;9.806;2022-08-25T15:27:18;27.30;64.80
66184;DHT22;52989;48.796;9.806;2022-08-25T15:29:43;27.30;65.10
66184;DHT22;52989;48.796;9.806;2022-08-25T15:32:09;27.40;64.60
66184;DHT22;52989;48.796;9.806;2022-08-25T15:34:35;27.50;65.20
66184;DHT22;52989;48.796;9.806;2022-08-25T15:37:13;27.40;65.00
66184;DHT22;52989;48.796;9.806;2022-08-25T15:39:41;27.30;64.80
66184;DHT22;52989;48.796;9.806;2022-08-25T15:42:08;27.10;65.70
66184;DHT22;52989;48.796;9.806;2022-08-25T15:44:37;27.00;64.90
66184;DHT22;52989;48.796;9.806;2022-08-25T15:47:03;27.20;64.80
66184;DHT22;52989;48.796;9.806;2022-08-25T15:49:28;27.40;64.70
66184;DHT22;52989;48.796;9.806;2022-08-25T15:51:54;27.50;64.20
66184;DHT22;52989;48.796;9.806;2022-08-25T15:54:21;27.20;67.80
66184;DHT22;52989;48.796;9.806;2022-08-25T15:56:47;27.60;65.30
66184;DHT22;52989;48.796;9.806;2022-08-25T15:59:13;28.10;64.00
66184;DHT22;52989;48.796;9.806;2022-08-25T16:01:39;28.50;65.40
66184;DHT22;52989;48.796;9.806;2022-08-25T16:04:05;28.90;63.00
66184;DHT22;52989;48.796;9.806;2022-08-25T16:06:31;29.00;62.30
66184;DHT22;52989;48.796;9.806;2022-08-25T16:08:56;28.70;66.00
66184;DHT22;52989;48.796;9.806;2022-08-25T16:11:25;28.70;65.80
66184;DHT22;52989;48.796;9.806;2022-08-25T16:13:51;28.70;67.40
66184;DHT22;52989;48.796;9.806;2022-08-25T16:16:18;28.40;66.30
66184;DHT22;52989;48.796;9.806;2022-08-25T16:18:45;28.50;64.40
66184;DHT22;52989;48.796;9.806;2022-08-25T16:21:13;28.60;64.10
66184;DHT22;52989;48.796;9.806;2022-08-25T16:23:39;28.60;66.20
66184;DHT22;52989;48.796;9.806;2022-08-25T16:26:06;28.50;65.70
66184;DHT22;52989;48.796;9.806;2022-08-25T16:28:37;28.40;66.30
66184;DHT22;52989;48.796;9.806;2022-08-25T16:31:03;28.30;65.60
66184;DHT22;52989;48.796;9.806;2022-08-25T16:33:29;28.30;65.90
66184;DHT22;52989;48.796;9.806;2022-08-25T16:38:35;28.10;66.50
66184;DHT22;52989;48.796;9.806;2022-08-25T16:41:05;27.70;68.40
66184;DHT22;52989;48.796;9.806;2022-08-25T16:43:30;27.70;68.60
66184;DHT22;52989;48.796;9.806;2022-08-25T16:45:58;27.60;68.50
66184;DHT22;52989;48.796;9.806;2022-08-25T16:48:24;27.50;69.00
66184;DHT22;52989;48.796;9.806;2022-08-25T16:50:49;27.40;68.50
66184;DHT22;52989;48.796;9.806;2022-08-25T16:53:15;27.30;70.10
66184;DHT22;52989;48.796;9.806;2022-08-25T16:56:03;27.10;70.30
66184;DHT22;52989;48.796;9.806;2022-08-25T16:58:29;27.10;70.60
66184;DHT22;52989;48.796;9.806;2022-08-25T17:00:55;27.10;70.00
66184;DHT22;52989;48.796;9.806;2022-08-25T17:03:21;27.00;71.60
66184;DHT22;52989;48.796;9.806;2022-08-25T17:05:46;26.80;71.60
66184;DHT22;52989;48.796;9.806;2022-08-25T17:08:13;26.80;71.10
66184;DHT22;52989;48.796;9.806;2022-08-25T17:11:15;26.80;70.10
66184;DHT22;52989;48.796;9.806;2022-08-25T17:13:43;26.70;71.20
66184;DHT22;52989;48.796;9.806;2022-08-25T17:16:09;26.50;71.40
66184;DHT22;52989;48.796;9.806;2022-08-25T17:18:35;26.50;71.00
66184;DHT22;52989;48.796;9.806;2022-08-25T17:21:05;26.50;69.70
66184;DHT22;52989;48.796;9.806;2022-08-25T17:23:32;26.60;69.30
66184;DHT22;52989;48.796;9.806;2022-08-25T17:25:59;26.50;70.00
66184;DHT22;52989;48.796;9.806;2022-08-25T17:28:25;26.50;69.30
66184;DHT22;52989;48.796;9.806;2022-08-25T17:30:52;26.70;68.80
66184;DHT22;52989;48.796;9.806;2022-08-25T17:33:17;26.70;68.50
66184;DHT22;52989;48.796;9.806;2022-08-25T17:35:46;26.60;68.40
66184;DHT22;52989;48.796;9.806;2022-08-25T17:38:13;26.60;68.80
66184;DHT22;52989;48.796;9.806;2022-08-25T17:40:40;26.50;69.30
66184;DHT22;52989;48.796;9.806;2022-08-25T17:43:06;26.50;69.60
66184;DHT22;52989;48.796;9.806;2022-08-25T17:45:32;26.30;69.80
66184;DHT22;52989;48.796;9.806;2022-08-25T17:47:58;26.20;70.40
66184;DHT22;52989;48.796;9.806;2022-08-25T17:50:24;26.10;70.30
66184;DHT22;52989;48.796;9.806;2022-08-25T17:52:51;26.00;69.90